Thursday, October 02, 2014
16:35 UTC
  |  Log In   |  Register Free
Airport Search:

Gainesville Municipal Airport
(KGLE)

FAA data valid effective September 18, 2014 - November 13, 2014 (unless otherwise noted).

 
 
 
 
 
 
 
 
 
 
 
 
 
 

Current Aviation Weather for Gainesville Municipal Airport (KGLE)

The most recent METAR observation for KGLE was updated at: 1612
METAR Summary (Translated METAR)
KGLE
021555Z AUTO 18018G26KT 10SM BKN028 BKN120 29/22 A2983 RMK AO2 T02920215
KGYI
021555Z AUTO 20016G23KT 10SM SCT027 BKN120 28/21 A2982 RMK AO2 LTG DSNT N AND NW T02840214
(26.4 nm NE from KGLE)
KDTO
021553Z 19018KT 10SM BKN030 BKN036 29/22 A2982 RMK AO2 LTG DSNT W AND NW SLP086 T02940217
(27 nm SW from KGLE)
TAF
No TAF information found within 50 nm of KGLE
  Airport Weather Conditions for KGLE

 Current Weather at GLE
85° F
Mostly Cloudy and Breezy
South winds at 20.7 mph
GLE NOAA Radar

Pressure: 29.83 in
Humidity: 63%
Wind: from the South at 20.7 gusting to 29.9 MPH (18 gusting to 26 KT)
Dew Point: 70.7°F
Visibility: 10.00 mi


Airport Weather Forecast for KGLE

Translated METAR and TAF for KGLE
Translated METAR for KGLE (1630 UTC 02 October 2014)
found at http://aviationweather.gov/adds/metars/
 
METAR text: KGLE 021615Z AUTO 19015G21KT 10SM SCT028 OVC110 27/21 A2984 RMK AO2 T02720213
Conditions at: KGLE (GAINESVILLE , TX, US) observed 1615 UTC 02 October 2014
Temperature: 27.2°C (81°F)
Dewpoint: 21.3°C (70°F) [RH = 70%]
Pressure (altimeter): 29.84 inches Hg (1010.6 mb)
Winds: from the S (190 degrees) at 17 MPH (15 knots; 7.8 m/s)
gusting to 24 MPH (21 knots; 10.9 m/s)
Visibility: 10 or more miles (16+ km)
Ceiling: 11000 feet AGL
Clouds: scattered clouds at 2800 feet AGL
overcast cloud deck at 11000 feet AGL
Weather: automated observation with no human augmentation;
there may or may not be significant weather present at this time
Translated TAF for KGLE

There is no translated TAF available for this airport

Find All Airport Services Find A Hotel Find A Rental Car Find A Golf Course Find A Restaurant $100 Hamburger



FBO's on the Field
FBO Company Facility Photos Services Transportation Aviation Fuel Prices: Prices include tax
Catering Weather Repair Courtesy Rental Type 100LL JetA JetA+ MOGAS 8087
 
City of Gainesville Municipal Airport

This FBO has not yet been rated
FS:Phillips66
Last Updated: Sep-20
Login to update fuel prices
SS:
Contact City of Gainesville Municipal AirportMore FBO Information
 
Add another FBO Facility Photos Catering Weather Repair Courtesy Rental Type 100LL JetA JetA+ MOGAS 8087
Services Transportation Aviation Fuel Prices: Prices include tax


model-print
model-print
model-print
model-print